sensor_id;sensor_type;location;lat;lon;timestamp;pressure;altitude;pressure_sealevel;temperature;humidity
50103;BME280;35993;52.604;10.078;2022-08-16T00:00:24;100221.94;;;19.46;100.00
50103;BME280;35993;52.604;10.078;2022-08-16T00:02:51;100213.97;;;19.44;100.00
50103;BME280;35993;52.604;10.078;2022-08-16T00:05:17;100212.06;;;19.40;100.00
50103;BME280;35993;52.604;10.078;2022-08-16T00:07:43;100206.59;;;19.35;100.00
50103;BME280;35993;52.604;10.078;2022-08-16T00:10:12;100204.44;;;19.31;100.00
50103;BME280;35993;52.604;10.078;2022-08-16T00:12:38;100201.44;;;19.28;100.00
50103;BME280;35993;52.604;10.078;2022-08-16T00:15:20;100207.25;;;19.26;100.00
50103;BME280;35993;52.604;10.078;2022-08-16T00:17:46;100200.88;;;19.31;100.00
50103;BME280;35993;52.604;10.078;2022-08-16T00:20:13;100195.56;;;19.40;100.00
50103;BME280;35993;52.604;10.078;2022-08-16T00:22:41;100197.75;;;19.43;100.00
50103;BME280;35993;52.604;10.078;2022-08-16T00:25:11;100200.25;;;19.39;100.00
50103;BME280;35993;52.604;10.078;2022-08-16T00:27:39;100203.75;;;19.45;100.00
50103;BME280;35993;52.604;10.078;2022-08-16T00:30:08;100204.91;;;19.44;100.00
50103;BME280;35993;52.604;10.078;2022-08-16T00:32:39;100203.19;;;19.48;100.00
50103;BME280;35993;52.604;10.078;2022-08-16T00:35:13;100203.75;;;19.45;100.00
50103;BME280;35993;52.604;10.078;2022-08-16T00:37:40;100198.00;;;19.46;100.00
50103;BME280;35993;52.604;10.078;2022-08-16T00:40:07;100203.50;;;19.46;100.00
50103;BME280;35993;52.604;10.078;2022-08-16T00:42:33;100206.34;;;19.36;100.00
50103;BME280;35993;52.604;10.078;2022-08-16T00:45:08;100211.84;;;19.36;100.00
50103;BME280;35993;52.604;10.078;2022-08-16T00:47:42;100214.09;;;19.29;100.00
50103;BME280;35993;52.604;10.078;2022-08-16T00:50:11;100210.19;;;19.35;100.00
50103;BME280;35993;52.604;10.078;2022-08-16T00:52:39;100208.22;;;19.41;100.00
50103;BME280;35993;52.604;10.078;2022-08-16T00:55:06;100203.59;;;19.36;100.00
50103;BME280;35993;52.604;10.078;2022-08-16T00:57:33;100201.00;;;19.45;100.00
50103;BME280;35993;52.604;10.078;2022-08-16T01:00:00;100205.78;;;19.34;100.00
50103;BME280;35993;52.604;10.078;2022-08-16T01:02:29;100203.59;;;19.36;100.00
50103;BME280;35993;52.604;10.078;2022-08-16T01:04:55;100200.28;;;19.34;100.00
50103;BME280;35993;52.604;10.078;2022-08-16T01:07:20;100214.91;;;19.29;100.00
50103;BME280;35993;52.604;10.078;2022-08-16T01:09:46;100212.41;;;19.33;100.00
50103;BME280;35993;52.604;10.078;2022-08-16T01:12:12;100211.38;;;19.24;100.00
50103;BME280;35993;52.604;10.078;2022-08-16T01:14:45;100217.91;;;19.33;100.00
50103;BME280;35993;52.604;10.078;2022-08-16T01:17:14;100219.22;;;19.41;100.00
50103;BME280;35993;52.604;10.078;2022-08-16T01:19:44;100221.13;;;19.45;100.00
50103;BME280;35993;52.604;10.078;2022-08-16T01:25:20;100223.06;;;19.40;100.00
50103;BME280;35993;52.604;10.078;2022-08-16T01:27:52;100231.06;;;19.41;100.00
50103;BME280;35993;52.604;10.078;2022-08-16T01:30:21;100227.22;;;19.37;100.00
50103;BME280;35993;52.604;10.078;2022-08-16T01:32:56;100226.41;;;19.37;100.00
50103;BME280;35993;52.604;10.078;2022-08-16T01:35:27;100231.16;;;19.31;100.00
50103;BME280;35993;52.604;10.078;2022-08-16T01:37:55;100222.91;;;19.31;100.00
50103;BME280;35993;52.604;10.078;2022-08-16T01:40:28;100224.56;;;19.27;100.00
50103;BME280;35993;52.604;10.078;2022-08-16T01:42:54;100226.00;;;19.19;100.00
50103;BME280;35993;52.604;10.078;2022-08-16T01:45:21;100231.41;;;19.29;100.00
50103;BME280;35993;52.604;10.078;2022-08-16T01:47:49;100237.59;;;19.16;100.00
50103;BME280;35993;52.604;10.078;2022-08-16T01:50:16;100230.41;;;19.20;100.00
50103;BME280;35993;52.604;10.078;2022-08-16T01:52:42;100238.06;;;19.23;100.00
50103;BME280;35993;52.604;10.078;2022-08-16T01:55:31;100227.63;;;19.20;100.00
50103;BME280;35993;52.604;10.078;2022-08-16T01:57:57;100240.81;;;19.28;100.00
50103;BME280;35993;52.604;10.078;2022-08-16T02:00:24;100240.03;;;19.18;100.00
50103;BME280;35993;52.604;10.078;2022-08-16T02:02:50;100248.50;;;19.26;100.00
50103;BME280;35993;52.604;10.078;2022-08-16T02:05:16;100249.66;;;19.20;100.00
50103;BME280;35993;52.604;10.078;2022-08-16T02:07:42;100249.66;;;19.20;100.00
50103;BME280;35993;52.604;10.078;2022-08-16T02:10:09;100250.69;;;19.29;100.00
50103;BME280;35993;52.604;10.078;2022-08-16T02:12:40;100252.06;;;19.27;100.00
50103;BME280;35993;52.604;10.078;2022-08-16T02:15:06;100252.59;;;19.34;100.00
50103;BME280;35993;52.604;10.078;2022-08-16T02:17:33;100253.72;;;19.28;100.00
50103;BME280;35993;52.604;10.078;2022-08-16T02:20:00;100253.72;;;19.28;100.00
50103;BME280;35993;52.604;10.078;2022-08-16T02:22:26;100255.66;;;19.27;100.00
50103;BME280;35993;52.604;10.078;2022-08-16T02:24:51;100254.34;;;19.20;100.00
50103;BME280;35993;52.604;10.078;2022-08-16T02:27:17;100262.53;;;19.30;100.00
50103;BME280;35993;52.604;10.078;2022-08-16T02:29:43;100263.66;;;19.24;100.00
50103;BME280;35993;52.604;10.078;2022-08-16T02:32:11;100260.31;;;19.27;100.00
50103;BME280;35993;52.604;10.078;2022-08-16T02:34:37;100258.47;;;19.22;100.00
50103;BME280;35993;52.604;10.078;2022-08-16T02:37:03;100263.09;;;19.27;100.00
50103;BME280;35993;52.604;10.078;2022-08-16T02:39:31;100268.31;;;19.28;100.00
50103;BME280;35993;52.604;10.078;2022-08-16T02:41:57;100262.03;;;19.23;100.00
50103;BME280;35993;52.604;10.078;2022-08-16T02:44:23;100268.34;;;19.23;100.00
50103;BME280;35993;52.604;10.078;2022-08-16T02:46:50;100261.25;;;19.17;100.00
50103;BME280;35993;52.604;10.078;2022-08-16T02:49:17;100262.69;;;19.09;100.00
50103;BME280;35993;52.604;10.078;2022-08-16T02:51:43;100260.69;;;19.15;100.00
50103;BME280;35993;52.604;10.078;2022-08-16T02:54:10;100264.09;;;19.02;100.00
50103;BME280;35993;52.604;10.078;2022-08-16T02:56:36;100263.25;;;19.01;100.00
50103;BME280;35993;52.604;10.078;2022-08-16T02:59:02;100258.91;;;18.95;100.00
50103;BME280;35993;52.604;10.078;2022-08-16T03:01:30;100259.19;;;18.88;100.00
50103;BME280;35993;52.604;10.078;2022-08-16T03:03:56;100262.75;;;18.94;100.00
50103;BME280;35993;52.604;10.078;2022-08-16T03:06:26;100263.06;;;18.82;100.00
50103;BME280;35993;52.604;10.078;2022-08-16T03:08:55;100260.84;;;18.89;100.00
50103;BME280;35993;52.604;10.078;2022-08-16T03:11:23;100260.31;;;18.82;100.00
50103;BME280;35993;52.604;10.078;2022-08-16T03:13:51;100257.84;;;18.80;100.00
50103;BME280;35993;52.604;10.078;2022-08-16T03:16:19;100253.41;;;18.84;100.00
50103;BME280;35993;52.604;10.078;2022-08-16T03:18:45;100257.59;;;18.77;100.00
50103;BME280;35993;52.604;10.078;2022-08-16T03:21:10;100260.06;;;18.78;100.00
50103;BME280;35993;52.604;10.078;2022-08-16T03:23:38;100256.25;;;18.69;100.00
50103;BME280;35993;52.604;10.078;2022-08-16T03:26:04;100257.91;;;18.70;100.00
50103;BME280;35993;52.604;10.078;2022-08-16T03:28:30;100265.06;;;18.71;100.00
50103;BME280;35993;52.604;10.078;2022-08-16T03:30:56;100261.22;;;18.67;100.00
50103;BME280;35993;52.604;10.078;2022-08-16T03:33:22;100258.47;;;18.72;100.00
50103;BME280;35993;52.604;10.078;2022-08-16T03:35:52;100252.41;;;18.70;100.00
50103;BME280;35993;52.604;10.078;2022-08-16T03:38:29;100252.66;;;18.74;100.00
50103;BME280;35993;52.604;10.078;2022-08-16T03:40:57;100257.09;;;18.70;100.00
50103;BME280;35993;52.604;10.078;2022-08-16T03:43:24;100252.41;;;18.70;100.00
50103;BME280;35993;52.604;10.078;2022-08-16T03:45:52;100249.91;;;18.74;100.00
50103;BME280;35993;52.604;10.078;2022-08-16T03:48:26;100251.63;;;18.59;100.00
50103;BME280;35993;52.604;10.078;2022-08-16T03:50:52;100260.09;;;18.68;100.00
50103;BME280;35993;52.604;10.078;2022-08-16T03:53:18;100244.19;;;18.65;100.00
50103;BME280;35993;52.604;10.078;2022-08-16T03:55:44;100250.22;;;18.72;100.00
50103;BME280;35993;52.604;10.078;2022-08-16T03:58:10;100245.50;;;18.78;100.00
50103;BME280;35993;52.604;10.078;2022-08-16T04:00:35;100249.69;;;18.65;100.00
50103;BME280;35993;52.604;10.078;2022-08-16T04:03:04;100250.47;;;18.71;100.00
50103;BME280;35993;52.604;10.078;2022-08-16T04:05:41;100255.75;;;18.67;100.00
50103;BME280;35993;52.604;10.078;2022-08-16T04:08:07;100254.59;;;18.68;100.00
50103;BME280;35993;52.604;10.078;2022-08-16T04:10:32;100258.72;;;18.71;100.00
50103;BME280;35993;52.604;10.078;2022-08-16T04:12:58;100261.50;;;18.65;100.00
50103;BME280;35993;52.604;10.078;2022-08-16T04:15:24;100259.28;;;18.67;100.00
50103;BME280;35993;52.604;10.078;2022-08-16T04:18:06;100267.00;;;18.60;100.00
50103;BME280;35993;52.604;10.078;2022-08-16T04:20:32;100266.47;;;18.63;100.00
50103;BME280;35993;52.604;10.078;2022-08-16T04:22:59;100258.22;;;18.63;100.00
50103;BME280;35993;52.604;10.078;2022-08-16T04:25:27;100263.72;;;18.63;100.00
50103;BME280;35993;52.604;10.078;2022-08-16T04:27:53;100265.09;;;18.61;100.00
50103;BME280;35993;52.604;10.078;2022-08-16T04:30:19;100263.50;;;18.49;100.00
50103;BME280;35993;52.604;10.078;2022-08-16T04:32:48;100268.69;;;18.56;100.00
50103;BME280;35993;52.604;10.078;2022-08-16T04:35:16;100263.78;;;18.53;100.00
50103;BME280;35993;52.604;10.078;2022-08-16T04:37:45;100266.50;;;18.58;100.00
50103;BME280;35993;52.604;10.078;2022-08-16T04:40:20;100269.25;;;18.58;100.00
50103;BME280;35993;52.604;10.078;2022-08-16T04:42:46;100283.25;;;18.51;100.00
50103;BME280;35993;52.604;10.078;2022-08-16T04:45:15;100290.94;;;18.60;100.00
50103;BME280;35993;52.604;10.078;2022-08-16T04:47:43;100290.94;;;18.65;100.00
50103;BME280;35993;52.604;10.078;2022-08-16T04:50:15;100302.72;;;18.71;100.00
50103;BME280;35993;52.604;10.078;2022-08-16T04:52:57;100307.41;;;18.65;100.00
50103;BME280;35993;52.604;10.078;2022-08-16T04:55:26;100309.34;;;18.64;100.00
50103;BME280;35993;52.604;10.078;2022-08-16T04:57:54;100300.81;;;18.66;100.00
50103;BME280;35993;52.604;10.078;2022-08-16T05:00:29;100303.06;;;18.54;100.00
50103;BME280;35993;52.604;10.078;2022-08-16T05:03:07;100304.66;;;18.65;100.00
50103;BME280;35993;52.604;10.078;2022-08-16T05:05:40;100310.19;;;18.60;100.00
50103;BME280;35993;52.604;10.078;2022-08-16T05:08:07;100311.81;;;18.71;100.00
50103;BME280;35993;52.604;10.078;2022-08-16T05:10:33;100314.84;;;18.70;100.00
50103;BME280;35993;52.604;10.078;2022-08-16T05:13:00;100322.50;;;18.73;100.00
50103;BME280;35993;52.604;10.078;2022-08-16T05:15:27;100314.50;;;18.81;100.00
50103;BME280;35993;52.604;10.078;2022-08-16T05:17:54;100321.63;;;18.88;100.00
50103;BME280;35993;52.604;10.078;2022-08-16T05:20:20;100321.56;;;19.03;100.00
50103;BME280;35993;52.604;10.078;2022-08-16T05:22:47;100322.63;;;19.12;100.00
50103;BME280;35993;52.604;10.078;2022-08-16T05:25:16;100330.00;;;19.22;100.00
50103;BME280;35993;52.604;10.078;2022-08-16T05:27:47;100321.63;;;19.38;100.00
50103;BME280;35993;52.604;10.078;2022-08-16T05:30:16;100326.53;;;19.46;100.00
50103;BME280;35993;52.604;10.078;2022-08-16T05:32:43;100330.31;;;19.55;100.00
50103;BME280;35993;52.604;10.078;2022-08-16T05:35:11;100326.44;;;19.56;100.00
50103;BME280;35993;52.604;10.078;2022-08-16T05:38:00;100323.66;;;19.61;100.00
50103;BME280;35993;52.604;10.078;2022-08-16T05:40:29;100322.59;;;19.57;100.00
50103;BME280;35993;52.604;10.078;2022-08-16T05:42:56;100320.16;;;19.51;100.00
50103;BME280;35993;52.604;10.078;2022-08-16T05:45:21;100326.94;;;19.63;100.00
50103;BME280;35993;52.604;10.078;2022-08-16T05:47:47;100322.50;;;19.68;100.00
50103;BME280;35993;52.604;10.078;2022-08-16T05:50:13;100336.75;;;19.80;100.00
50103;BME280;35993;52.604;10.078;2022-08-16T05:52:39;100338.38;;;19.81;100.00
50103;BME280;35993;52.604;10.078;2022-08-16T05:55:06;100333.69;;;19.87;100.00
50103;BME280;35993;52.604;10.078;2022-08-16T05:57:34;100338.75;;;20.04;100.00
50103;BME280;35993;52.604;10.078;2022-08-16T06:00:00;100341.75;;;20.07;100.00
50103;BME280;35993;52.604;10.078;2022-08-16T06:02:38;100342.50;;;20.18;100.00
50103;BME280;35993;52.604;10.078;2022-08-16T06:05:09;100345.56;;;20.11;100.00
50103;BME280;35993;52.604;10.078;2022-08-16T06:07:35;100355.47;;;20.12;100.00
50103;BME280;35993;52.604;10.078;2022-08-16T06:10:10;100349.06;;;20.22;100.00
50103;BME280;35993;52.604;10.078;2022-08-16T06:12:36;100360.63;;;20.24;100.00
50103;BME280;35993;52.604;10.078;2022-08-16T06:15:08;100356.88;;;20.39;100.00
50103;BME280;35993;52.604;10.078;2022-08-16T06:17:36;100360.97;;;20.42;100.00
50103;BME280;35993;52.604;10.078;2022-08-16T06:20:04;100376.25;;;20.58;100.00
50103;BME280;35993;52.604;10.078;2022-08-16T06:22:30;100364.66;;;20.61;100.00
50103;BME280;35993;52.604;10.078;2022-08-16T06:24:56;100362.94;;;20.66;100.00
50103;BME280;35993;52.604;10.078;2022-08-16T06:27:22;100364.72;;;20.81;100.00
50103;BME280;35993;52.604;10.078;2022-08-16T06:29:48;100366.81;;;20.89;100.00
50103;BME280;35993;52.604;10.078;2022-08-16T06:32:14;100357.00;;;21.02;100.00
50103;BME280;35993;52.604;10.078;2022-08-16T06:34:39;100360.31;;;21.04;100.00
50103;BME280;35993;52.604;10.078;2022-08-16T06:37:08;100366.94;;;21.03;100.00
50103;BME280;35993;52.604;10.078;2022-08-16T06:39:36;100361.44;;;21.22;100.00
50103;BME280;35993;52.604;10.078;2022-08-16T06:42:06;100364.50;;;21.20;100.00
50103;BME280;35993;52.604;10.078;2022-08-16T06:44:50;100362.88;;;21.38;100.00
50103;BME280;35993;52.604;10.078;2022-08-16T06:47:34;100368.00;;;21.26;100.00
50103;BME280;35993;52.604;10.078;2022-08-16T06:49:59;100378.25;;;21.44;100.00
50103;BME280;35993;52.604;10.078;2022-08-16T06:52:34;100378.44;;;21.48;100.00
50103;BME280;35993;52.604;10.078;2022-08-16T06:55:05;100372.72;;;21.44;100.00
50103;BME280;35993;52.604;10.078;2022-08-16T06:57:31;100384.38;;;21.60;100.00
50103;BME280;35993;52.604;10.078;2022-08-16T06:59:57;100390.63;;;21.66;100.00
50103;BME280;35993;52.604;10.078;2022-08-16T07:02:24;100384.66;;;21.78;99.42
50103;BME280;35993;52.604;10.078;2022-08-16T07:04:51;100388.78;;;21.81;98.75
50103;BME280;35993;52.604;10.078;2022-08-16T07:07:19;100392.94;;;21.97;98.23
50103;BME280;35993;52.604;10.078;2022-08-16T07:09:45;100398.59;;;22.20;97.71
50103;BME280;35993;52.604;10.078;2022-08-16T07:12:14;100402.53;;;22.33;97.36
50103;BME280;35993;52.604;10.078;2022-08-16T07:14:42;100397.06;;;22.47;96.12
50103;BME280;35993;52.604;10.078;2022-08-16T07:17:12;100403.59;;;22.37;94.51
50103;BME280;35993;52.604;10.078;2022-08-16T07:19:41;100400.00;;;22.36;93.36
50103;BME280;35993;52.604;10.078;2022-08-16T07:22:09;100399.91;;;22.41;94.25
50103;BME280;35993;52.604;10.078;2022-08-16T07:24:35;100404.75;;;22.50;93.50
50103;BME280;35993;52.604;10.078;2022-08-16T07:27:04;100407.81;;;22.62;92.02
50103;BME280;35993;52.604;10.078;2022-08-16T07:29:31;100411.13;;;22.78;91.45
50103;BME280;35993;52.604;10.078;2022-08-16T07:31:57;100414.31;;;22.99;90.86
50103;BME280;35993;52.604;10.078;2022-08-16T07:34:24;100412.78;;;23.07;88.74
50103;BME280;35993;52.604;10.078;2022-08-16T07:36:50;100420.66;;;23.00;88.95
50103;BME280;35993;52.604;10.078;2022-08-16T07:39:16;100424.66;;;22.80;88.71
50103;BME280;35993;52.604;10.078;2022-08-16T07:41:44;100420.25;;;22.79;88.10
50103;BME280;35993;52.604;10.078;2022-08-16T07:44:10;100421.72;;;23.18;87.34
50103;BME280;35993;52.604;10.078;2022-08-16T07:46:36;100418.91;;;23.32;84.88
50103;BME280;35993;52.604;10.078;2022-08-16T07:49:07;100417.13;;;23.50;84.22
50103;BME280;35993;52.604;10.078;2022-08-16T07:51:35;100423.53;;;23.73;83.56
50103;BME280;35993;52.604;10.078;2022-08-16T07:54:04;100425.09;;;23.65;81.19
50103;BME280;35993;52.604;10.078;2022-08-16T07:56:30;100426.63;;;23.71;79.65
50103;BME280;35993;52.604;10.078;2022-08-16T07:58:56;100428.19;;;23.64;80.31
50103;BME280;35993;52.604;10.078;2022-08-16T08:01:22;100426.81;;;23.75;79.92
50103;BME280;35993;52.604;10.078;2022-08-16T08:03:53;100425.97;;;23.75;79.29
50103;BME280;35993;52.604;10.078;2022-08-16T08:06:28;100428.06;;;23.69;77.17
50103;BME280;35993;52.604;10.078;2022-08-16T08:08:59;100424.13;;;23.84;76.74
50103;BME280;35993;52.604;10.078;2022-08-16T08:11:27;100431.13;;;23.81;77.44
50103;BME280;35993;52.604;10.078;2022-08-16T08:13:53;100432.22;;;23.94;78.04
50103;BME280;35993;52.604;10.078;2022-08-16T08:16:20;100440.97;;;24.10;78.08
50103;BME280;35993;52.604;10.078;2022-08-16T08:18:47;100432.97;;;24.09;77.56
50103;BME280;35993;52.604;10.078;2022-08-16T08:21:14;100446.31;;;24.29;77.57
50103;BME280;35993;52.604;10.078;2022-08-16T08:23:40;100438.44;;;24.23;77.10
50103;BME280;35993;52.604;10.078;2022-08-16T08:26:07;100436.22;;;24.33;76.05
50103;BME280;35993;52.604;10.078;2022-08-16T08:28:33;100445.91;;;24.45;75.44
50103;BME280;35993;52.604;10.078;2022-08-16T08:31:05;100448.75;;;24.76;75.47
50103;BME280;35993;52.604;10.078;2022-08-16T08:33:35;100447.31;;;24.88;74.15
50103;BME280;35993;52.604;10.078;2022-08-16T08:36:04;100448.81;;;24.94;72.93
50103;BME280;35993;52.604;10.078;2022-08-16T08:38:32;100448.72;;;25.16;71.53
50103;BME280;35993;52.604;10.078;2022-08-16T08:40:59;100449.13;;;25.41;72.04
50103;BME280;35993;52.604;10.078;2022-08-16T08:43:25;100450.22;;;25.31;71.02
50103;BME280;35993;52.604;10.078;2022-08-16T08:45:55;100442.56;;;24.88;69.17
50103;BME280;35993;52.604;10.078;2022-08-16T08:48:23;100443.22;;;24.85;70.50
50103;BME280;35993;52.604;10.078;2022-08-16T08:50:49;100440.00;;;25.00;70.38
50103;BME280;35993;52.604;10.078;2022-08-16T08:53:15;100440.19;;;25.13;69.48
50103;BME280;35993;52.604;10.078;2022-08-16T08:55:42;100437.00;;;25.28;69.62
50103;BME280;35993;52.604;10.078;2022-08-16T08:58:07;100438.84;;;25.42;69.26
50103;BME280;35993;52.604;10.078;2022-08-16T09:00:44;100452.06;;;25.45;68.85
50103;BME280;35993;52.604;10.078;2022-08-16T09:03:11;100450.31;;;25.58;68.53
50103;BME280;35993;52.604;10.078;2022-08-16T09:05:42;100441.47;;;25.64;69.05
50103;BME280;35993;52.604;10.078;2022-08-16T09:08:09;100451.44;;;25.74;68.99
50103;BME280;35993;52.604;10.078;2022-08-16T09:10:58;100456.53;;;25.72;69.46
50103;BME280;35993;52.604;10.078;2022-08-16T09:13:24;100460.47;;;25.80;67.19
50103;BME280;35993;52.604;10.078;2022-08-16T09:15:54;100455.69;;;25.45;64.51
50103;BME280;35993;52.604;10.078;2022-08-16T09:18:23;100455.59;;;25.28;65.71
50103;BME280;35993;52.604;10.078;2022-08-16T09:20:52;100455.84;;;25.66;66.24
50103;BME280;35993;52.604;10.078;2022-08-16T09:23:18;100450.00;;;25.68;65.17
50103;BME280;35993;52.604;10.078;2022-08-16T09:25:45;100445.56;;;25.93;64.33
50103;BME280;35993;52.604;10.078;2022-08-16T09:28:14;100442.31;;;26.00;62.62
50103;BME280;35993;52.604;10.078;2022-08-16T09:30:45;100443.94;;;26.19;63.05
50103;BME280;35993;52.604;10.078;2022-08-16T09:33:12;100441.31;;;26.22;62.04
50103;BME280;35993;52.604;10.078;2022-08-16T09:35:45;100436.91;;;26.12;62.38
50103;BME280;35993;52.604;10.078;2022-08-16T09:38:12;100440.84;;;26.11;61.61
50103;BME280;35993;52.604;10.078;2022-08-16T09:40:42;100444.78;;;26.19;61.84
50103;BME280;35993;52.604;10.078;2022-08-16T09:43:14;100447.69;;;26.31;61.33
50103;BME280;35993;52.604;10.078;2022-08-16T09:45:40;100439.50;;;26.26;60.72
50103;BME280;35993;52.604;10.078;2022-08-16T09:48:08;100449.66;;;26.22;61.09
50103;BME280;35993;52.604;10.078;2022-08-16T09:50:37;100442.78;;;26.20;61.06
50103;BME280;35993;52.604;10.078;2022-08-16T09:53:05;100449.47;;;26.45;60.36
50103;BME280;35993;52.604;10.078;2022-08-16T09:55:31;100439.56;;;26.65;58.67
50103;BME280;35993;52.604;10.078;2022-08-16T09:57:57;100442.03;;;26.75;58.53
50103;BME280;35993;52.604;10.078;2022-08-16T10:00:23;100440.47;;;26.87;57.90
50103;BME280;35993;52.604;10.078;2022-08-16T10:02:51;100443.53;;;27.03;57.81
50103;BME280;35993;52.604;10.078;2022-08-16T10:05:18;100451.03;;;27.11;56.95
50103;BME280;35993;52.604;10.078;2022-08-16T10:07:44;100437.81;;;26.99;55.81
50103;BME280;35993;52.604;10.078;2022-08-16T10:10:12;100443.94;;;26.84;56.21
50103;BME280;35993;52.604;10.078;2022-08-16T10:12:38;100440.81;;;26.85;56.45
50103;BME280;35993;52.604;10.078;2022-08-16T10:15:23;100442.84;;;27.06;55.21
50103;BME280;35993;52.604;10.078;2022-08-16T10:17:51;100441.19;;;27.13;55.20
50103;BME280;35993;52.604;10.078;2022-08-16T10:20:18;100442.88;;;27.36;55.05
50103;BME280;35993;52.604;10.078;2022-08-16T10:22:45;100448.09;;;27.37;54.04
50103;BME280;35993;52.604;10.078;2022-08-16T10:25:11;100442.00;;;27.44;53.52
50103;BME280;35993;52.604;10.078;2022-08-16T10:27:38;100448.53;;;27.48;53.39
50103;BME280;35993;52.604;10.078;2022-08-16T10:30:05;100449.25;;;27.66;53.33
50103;BME280;35993;52.604;10.078;2022-08-16T10:32:31;100452.00;;;27.45;52.19
50103;BME280;35993;52.604;10.078;2022-08-16T10:34:57;100447.38;;;27.49;52.43
50103;BME280;35993;52.604;10.078;2022-08-16T10:37:23;100446.19;;;27.59;51.71
50103;BME280;35993;52.604;10.078;2022-08-16T10:39:48;100447.94;;;27.63;52.00
50103;BME280;35993;52.604;10.078;2022-08-16T10:46:06;100457.53;;;27.75;52.11
50103;BME280;35993;52.604;10.078;2022-08-16T10:48:32;100454.13;;;27.90;51.19
50103;BME280;35993;52.604;10.078;2022-08-16T10:50:58;100458.69;;;27.95;51.21
50103;BME280;35993;52.604;10.078;2022-08-16T10:53:30;100460.44;;;28.00;50.46
50103;BME280;35993;52.604;10.078;2022-08-16T10:55:56;100454.75;;;27.96;50.04
50103;BME280;35993;52.604;10.078;2022-08-16T10:58:24;100455.41;;;27.93;50.59
50103;BME280;35993;52.604;10.078;2022-08-16T11:00:50;100447.25;;;28.09;51.24
50103;BME280;35993;52.604;10.078;2022-08-16T11:03:16;100456.84;;;28.20;50.79
50103;BME280;35993;52.604;10.078;2022-08-16T11:05:42;100457.94;;;28.07;50.00
50103;BME280;35993;52.604;10.078;2022-08-16T11:08:11;100458.53;;;27.91;51.22
50103;BME280;35993;52.604;10.078;2022-08-16T11:10:43;100462.28;;;27.95;50.57
50103;BME280;35993;52.604;10.078;2022-08-16T11:13:10;100464.16;;;28.25;49.66
50103;BME280;35993;52.604;10.078;2022-08-16T11:15:37;100455.63;;;27.88;49.46
50103;BME280;35993;52.604;10.078;2022-08-16T11:18:04;100454.53;;;27.29;50.98
50103;BME280;35993;52.604;10.078;2022-08-16T11:20:30;100457.63;;;27.06;52.34
50103;BME280;35993;52.604;10.078;2022-08-16T11:22:56;100462.00;;;26.77;52.94
50103;BME280;35993;52.604;10.078;2022-08-16T11:25:25;100459.06;;;26.74;53.42
50103;BME280;35993;52.604;10.078;2022-08-16T11:27:52;100462.81;;;26.69;53.28
50103;BME280;35993;52.604;10.078;2022-08-16T11:30:20;100460.84;;;26.78;51.26
50103;BME280;35993;52.604;10.078;2022-08-16T11:32:46;100467.34;;;27.21;50.71
50103;BME280;35993;52.604;10.078;2022-08-16T11:35:18;100462.75;;;27.55;49.77
50103;BME280;35993;52.604;10.078;2022-08-16T11:37:50;100470.84;;;27.90;48.69
50103;BME280;35993;52.604;10.078;2022-08-16T11:40:17;100463.72;;;27.80;47.33
50103;BME280;35993;52.604;10.078;2022-08-16T11:42:43;100467.38;;;27.72;48.51
50103;BME280;35993;52.604;10.078;2022-08-16T11:45:09;100469.84;;;27.53;48.80
50103;BME280;35993;52.604;10.078;2022-08-16T11:47:36;100469.44;;;27.33;48.58
50103;BME280;35993;52.604;10.078;2022-08-16T11:50:04;100470.78;;;27.99;47.02
50103;BME280;35993;52.604;10.078;2022-08-16T11:52:32;100473.31;;;28.47;46.34
50103;BME280;35993;52.604;10.078;2022-08-16T11:54:59;100465.16;;;28.75;46.09
50103;BME280;35993;52.604;10.078;2022-08-16T11:57:25;100466.19;;;28.70;43.92
50103;BME280;35993;52.604;10.078;2022-08-16T11:59:51;100469.50;;;28.51;44.69
50103;BME280;35993;52.604;10.078;2022-08-16T12:02:17;100465.50;;;28.06;45.49
50103;BME280;35993;52.604;10.078;2022-08-16T12:04:42;100465.28;;;27.69;46.09
50103;BME280;35993;52.604;10.078;2022-08-16T12:07:09;100471.72;;;27.61;46.54
50103;BME280;35993;52.604;10.078;2022-08-16T12:09:35;100461.63;;;27.56;46.77
50103;BME280;35993;52.604;10.078;2022-08-16T12:12:01;100464.88;;;28.01;47.41
50103;BME280;35993;52.604;10.078;2022-08-16T12:14:27;100469.75;;;28.58;46.69
50103;BME280;35993;52.604;10.078;2022-08-16T12:16:54;100471.91;;;28.74;46.03
50103;BME280;35993;52.604;10.078;2022-08-16T12:19:20;100466.44;;;28.77;45.51
50103;BME280;35993;52.604;10.078;2022-08-16T12:21:46;100457.38;;;28.93;45.19
50103;BME280;35993;52.604;10.078;2022-08-16T12:24:12;100457.03;;;28.94;44.07
50103;BME280;35993;52.604;10.078;2022-08-16T12:26:38;100456.69;;;29.21;44.11
50103;BME280;35993;52.604;10.078;2022-08-16T12:29:03;100458.91;;;29.28;44.41
50103;BME280;35993;52.604;10.078;2022-08-16T12:31:29;100464.22;;;29.45;42.95
50103;BME280;35993;52.604;10.078;2022-08-16T12:33:55;100472.06;;;29.39;42.45
50103;BME280;35993;52.604;10.078;2022-08-16T12:36:21;100470.53;;;29.30;42.56
50103;BME280;35993;52.604;10.078;2022-08-16T12:38:47;100461.72;;;29.28;42.70
50103;BME280;35993;52.604;10.078;2022-08-16T12:41:13;100462.63;;;29.32;42.37
50103;BME280;35993;52.604;10.078;2022-08-16T12:43:40;100472.06;;;29.39;42.80
50103;BME280;35993;52.604;10.078;2022-08-16T12:46:07;100463.78;;;29.55;42.31